sensor_id;sensor_type;location;lat;lon;timestamp;P1;durP1;ratioP1;P2;durP2;ratioP2
9188;SDS011;34313;50.780;6.084;2023-02-13T00:01:26;36.07;;;19.20;;
9188;SDS011;34313;50.780;6.084;2023-02-13T00:03:52;46.20;;;21.43;;
9188;SDS011;34313;50.780;6.084;2023-02-13T00:06:17;45.13;;;19.90;;
9188;SDS011;34313;50.780;6.084;2023-02-13T00:08:42;40.50;;;19.93;;
9188;SDS011;34313;50.780;6.084;2023-02-13T00:11:08;42.10;;;19.93;;
9188;SDS011;34313;50.780;6.084;2023-02-13T00:13:34;37.70;;;19.30;;
9188;SDS011;34313;50.780;6.084;2023-02-13T00:16:00;36.90;;;18.00;;
9188;SDS011;34313;50.780;6.084;2023-02-13T00:18:27;35.17;;;18.17;;
9188;SDS011;34313;50.780;6.084;2023-02-13T00:21:05;43.13;;;20.20;;
9188;SDS011;34313;50.780;6.084;2023-02-13T00:23:33;42.53;;;20.27;;
9188;SDS011;34313;50.780;6.084;2023-02-13T00:26:00;42.97;;;18.47;;
9188;SDS011;34313;50.780;6.084;2023-02-13T00:28:29;40.90;;;18.90;;
9188;SDS011;34313;50.780;6.084;2023-02-13T00:31:01;39.83;;;18.50;;
9188;SDS011;34313;50.780;6.084;2023-02-13T00:33:30;41.70;;;18.57;;
9188;SDS011;34313;50.780;6.084;2023-02-13T00:36:09;41.57;;;19.80;;
9188;SDS011;34313;50.780;6.084;2023-02-13T00:38:40;45.83;;;19.93;;
9188;SDS011;34313;50.780;6.084;2023-02-13T00:41:06;33.40;;;17.80;;
9188;SDS011;34313;50.780;6.084;2023-02-13T00:43:31;35.57;;;18.23;;
9188;SDS011;34313;50.780;6.084;2023-02-13T00:45:57;44.80;;;17.70;;
9188;SDS011;34313;50.780;6.084;2023-02-13T00:48:23;42.03;;;18.90;;
9188;SDS011;34313;50.780;6.084;2023-02-13T00:50:49;37.10;;;19.27;;
9188;SDS011;34313;50.780;6.084;2023-02-13T00:53:16;39.23;;;18.53;;
9188;SDS011;34313;50.780;6.084;2023-02-13T00:55:42;36.47;;;17.93;;
9188;SDS011;34313;50.780;6.084;2023-02-13T00:58:07;34.80;;;18.07;;
9188;SDS011;34313;50.780;6.084;2023-02-13T01:00:34;37.63;;;18.30;;
9188;SDS011;34313;50.780;6.084;2023-02-13T01:02:59;40.10;;;18.77;;
9188;SDS011;34313;50.780;6.084;2023-02-13T01:05:25;35.83;;;18.50;;
9188;SDS011;34313;50.780;6.084;2023-02-13T01:07:52;31.67;;;16.63;;
9188;SDS011;34313;50.780;6.084;2023-02-13T01:10:17;38.27;;;18.20;;
9188;SDS011;34313;50.780;6.084;2023-02-13T01:12:42;36.90;;;17.80;;
9188;SDS011;34313;50.780;6.084;2023-02-13T01:15:08;36.23;;;18.27;;
9188;SDS011;34313;50.780;6.084;2023-02-13T01:17:34;36.67;;;16.97;;
9188;SDS011;34313;50.780;6.084;2023-02-13T01:19:59;35.00;;;17.10;;
9188;SDS011;34313;50.780;6.084;2023-02-13T01:22:24;37.97;;;18.07;;
9188;SDS011;34313;50.780;6.084;2023-02-13T01:24:50;38.20;;;17.50;;
9188;SDS011;34313;50.780;6.084;2023-02-13T01:27:15;36.53;;;17.77;;
9188;SDS011;34313;50.780;6.084;2023-02-13T01:29:40;38.17;;;17.93;;
9188;SDS011;34313;50.780;6.084;2023-02-13T01:32:05;38.53;;;17.10;;
9188;SDS011;34313;50.780;6.084;2023-02-13T01:34:31;46.03;;;17.30;;
9188;SDS011;34313;50.780;6.084;2023-02-13T01:36:57;40.03;;;17.50;;
9188;SDS011;34313;50.780;6.084;2023-02-13T01:39:23;34.90;;;17.57;;
9188;SDS011;34313;50.780;6.084;2023-02-13T01:41:48;36.87;;;17.50;;
9188;SDS011;34313;50.780;6.084;2023-02-13T01:47:12;40.67;;;17.63;;
9188;SDS011;34313;50.780;6.084;2023-02-13T01:49:40;39.33;;;18.07;;
9188;SDS011;34313;50.780;6.084;2023-02-13T01:52:06;40.73;;;17.50;;
9188;SDS011;34313;50.780;6.084;2023-02-13T01:54:33;39.13;;;16.37;;
9188;SDS011;34313;50.780;6.084;2023-02-13T01:57:02;38.53;;;17.10;;
9188;SDS011;34313;50.780;6.084;2023-02-13T01:59:33;35.23;;;16.30;;
9188;SDS011;34313;50.780;6.084;2023-02-13T02:02:05;38.63;;;17.83;;
9188;SDS011;34313;50.780;6.084;2023-02-13T02:04:31;36.57;;;18.13;;
9188;SDS011;34313;50.780;6.084;2023-02-13T02:07:42;37.37;;;16.67;;
9188;SDS011;34313;50.780;6.084;2023-02-13T02:09:50;30.07;;;14.77;;
9188;SDS011;34313;50.780;6.084;2023-02-13T02:12:35;37.57;;;16.63;;
9188;SDS011;34313;50.780;6.084;2023-02-13T02:15:22;31.57;;;15.67;;
9188;SDS011;34313;50.780;6.084;2023-02-13T02:17:47;32.53;;;15.13;;
9188;SDS011;34313;50.780;6.084;2023-02-13T02:34:43;36.50;;;15.57;;
9188;SDS011;34313;50.780;6.084;2023-02-13T02:40:22;31.40;;;15.70;;
9188;SDS011;34313;50.780;6.084;2023-02-13T02:43:42;33.90;;;15.60;;
9188;SDS011;34313;50.780;6.084;2023-02-13T02:48:43;30.87;;;15.10;;
9188;SDS011;34313;50.780;6.084;2023-02-13T02:51:54;30.47;;;14.43;;
9188;SDS011;34313;50.780;6.084;2023-02-13T02:57:58;35.10;;;15.87;;
9188;SDS011;34313;50.780;6.084;2023-02-13T03:01:00;30.63;;;14.80;;
9188;SDS011;34313;50.780;6.084;2023-02-13T03:03:46;36.10;;;15.73;;
9188;SDS011;34313;50.780;6.084;2023-02-13T03:06:43;32.70;;;15.10;;
9188;SDS011;34313;50.780;6.084;2023-02-13T03:09:14;27.30;;;14.40;;
9188;SDS011;34313;50.780;6.084;2023-02-13T03:12:03;33.10;;;15.30;;
9188;SDS011;34313;50.780;6.084;2023-02-13T03:14:47;35.23;;;15.10;;
9188;SDS011;34313;50.780;6.084;2023-02-13T03:17:13;29.97;;;14.90;;
9188;SDS011;34313;50.780;6.084;2023-02-13T03:31:51;28.53;;;14.50;;
9188;SDS011;34313;50.780;6.084;2023-02-13T03:34:25;34.63;;;14.07;;
9188;SDS011;34313;50.780;6.084;2023-02-13T03:37:14;27.90;;;13.53;;
9188;SDS011;34313;50.780;6.084;2023-02-13T03:40:02;29.23;;;13.60;;
9188;SDS011;34313;50.780;6.084;2023-02-13T03:45:17;24.23;;;12.83;;
9188;SDS011;34313;50.780;6.084;2023-02-13T03:48:05;26.03;;;13.50;;
9188;SDS011;34313;50.780;6.084;2023-02-13T03:50:53;28.23;;;13.40;;
9188;SDS011;34313;50.780;6.084;2023-02-13T03:53:20;34.10;;;14.40;;
9188;SDS011;34313;50.780;6.084;2023-02-13T03:55:47;28.10;;;13.63;;
9188;SDS011;34313;50.780;6.084;2023-02-13T03:58:35;26.60;;;12.80;;
9188;SDS011;34313;50.780;6.084;2023-02-13T04:01:24;29.07;;;14.00;;
9188;SDS011;34313;50.780;6.084;2023-02-13T04:03:56;25.63;;;13.60;;
9188;SDS011;34313;50.780;6.084;2023-02-13T04:06:31;28.27;;;13.50;;
9188;SDS011;34313;50.780;6.084;2023-02-13T04:09:18;24.83;;;12.87;;
9188;SDS011;34313;50.780;6.084;2023-02-13T04:14:46;24.23;;;13.20;;
9188;SDS011;34313;50.780;6.084;2023-02-13T04:17:37;29.57;;;13.87;;
9188;SDS011;34313;50.780;6.084;2023-02-13T04:20:07;33.10;;;15.10;;
9188;SDS011;34313;50.780;6.084;2023-02-13T04:22:33;27.27;;;13.60;;
9188;SDS011;34313;50.780;6.084;2023-02-13T04:24:58;29.77;;;12.77;;
9188;SDS011;34313;50.780;6.084;2023-02-13T04:27:24;25.50;;;12.83;;
9188;SDS011;34313;50.780;6.084;2023-02-13T04:29:52;22.53;;;13.07;;
9188;SDS011;34313;50.780;6.084;2023-02-13T04:32:17;30.23;;;13.67;;
9188;SDS011;34313;50.780;6.084;2023-02-13T04:34:42;27.63;;;13.17;;
9188;SDS011;34313;50.780;6.084;2023-02-13T04:37:08;29.10;;;13.30;;
9188;SDS011;34313;50.780;6.084;2023-02-13T04:39:33;26.87;;;13.00;;
9188;SDS011;34313;50.780;6.084;2023-02-13T04:41:59;26.33;;;13.07;;
9188;SDS011;34313;50.780;6.084;2023-02-13T04:44:24;26.70;;;13.67;;
9188;SDS011;34313;50.780;6.084;2023-02-13T04:46:50;25.60;;;12.70;;
9188;SDS011;34313;50.780;6.084;2023-02-13T04:49:15;26.37;;;12.50;;
9188;SDS011;34313;50.780;6.084;2023-02-13T04:51:40;26.90;;;13.20;;
9188;SDS011;34313;50.780;6.084;2023-02-13T04:54:06;29.83;;;13.93;;
9188;SDS011;34313;50.780;6.084;2023-02-13T04:56:31;30.87;;;13.07;;
9188;SDS011;34313;50.780;6.084;2023-02-13T04:58:57;24.63;;;13.20;;
9188;SDS011;34313;50.780;6.084;2023-02-13T05:01:22;28.93;;;14.50;;
9188;SDS011;34313;50.780;6.084;2023-02-13T05:03:47;23.37;;;13.27;;
9188;SDS011;34313;50.780;6.084;2023-02-13T05:06:13;25.80;;;12.93;;
9188;SDS011;34313;50.780;6.084;2023-02-13T05:08:38;29.33;;;13.70;;
9188;SDS011;34313;50.780;6.084;2023-02-13T05:11:04;29.93;;;13.00;;
9188;SDS011;34313;50.780;6.084;2023-02-13T05:13:30;27.10;;;12.70;;
9188;SDS011;34313;50.780;6.084;2023-02-13T05:15:56;25.77;;;13.20;;
9188;SDS011;34313;50.780;6.084;2023-02-13T05:18:21;32.23;;;12.40;;
9188;SDS011;34313;50.780;6.084;2023-02-13T05:20:46;24.00;;;12.27;;
9188;SDS011;34313;50.780;6.084;2023-02-13T05:23:32;28.10;;;13.20;;
9188;SDS011;34313;50.780;6.084;2023-02-13T05:25:57;29.03;;;13.60;;
9188;SDS011;34313;50.780;6.084;2023-02-13T05:28:22;27.30;;;12.23;;
9188;SDS011;34313;50.780;6.084;2023-02-13T05:31:07;31.00;;;12.87;;
9188;SDS011;34313;50.780;6.084;2023-02-13T05:33:32;33.23;;;13.90;;
9188;SDS011;34313;50.780;6.084;2023-02-13T05:35:57;25.87;;;12.97;;
9188;SDS011;34313;50.780;6.084;2023-02-13T05:38:23;25.67;;;12.40;;
9188;SDS011;34313;50.780;6.084;2023-02-13T05:40:50;29.10;;;13.70;;
9188;SDS011;34313;50.780;6.084;2023-02-13T05:43:15;27.33;;;11.07;;
9188;SDS011;34313;50.780;6.084;2023-02-13T05:45:41;21.87;;;11.97;;
9188;SDS011;34313;50.780;6.084;2023-02-13T05:48:06;22.23;;;11.37;;
9188;SDS011;34313;50.780;6.084;2023-02-13T05:50:31;21.57;;;11.13;;
9188;SDS011;34313;50.780;6.084;2023-02-13T05:52:57;26.53;;;11.93;;
9188;SDS011;34313;50.780;6.084;2023-02-13T05:55:23;20.37;;;11.43;;
9188;SDS011;34313;50.780;6.084;2023-02-13T05:57:49;26.43;;;11.30;;
9188;SDS011;34313;50.780;6.084;2023-02-13T06:00:14;21.47;;;11.30;;
9188;SDS011;34313;50.780;6.084;2023-02-13T06:02:40;26.77;;;11.13;;
9188;SDS011;34313;50.780;6.084;2023-02-13T06:05:06;22.10;;;11.00;;
9188;SDS011;34313;50.780;6.084;2023-02-13T06:07:32;20.30;;;10.87;;
9188;SDS011;34313;50.780;6.084;2023-02-13T06:09:57;33.33;;;11.67;;
9188;SDS011;34313;50.780;6.084;2023-02-13T06:12:23;21.13;;;10.47;;
9188;SDS011;34313;50.780;6.084;2023-02-13T06:14:49;22.30;;;11.17;;
9188;SDS011;34313;50.780;6.084;2023-02-13T06:17:14;21.47;;;10.10;;
9188;SDS011;34313;50.780;6.084;2023-02-13T06:19:39;21.00;;;11.23;;
9188;SDS011;34313;50.780;6.084;2023-02-13T06:22:05;20.73;;;10.30;;
9188;SDS011;34313;50.780;6.084;2023-02-13T06:24:30;21.17;;;10.00;;
9188;SDS011;34313;50.780;6.084;2023-02-13T06:26:55;19.63;;;9.93;;
9188;SDS011;34313;50.780;6.084;2023-02-13T06:29:21;19.90;;;10.07;;
9188;SDS011;34313;50.780;6.084;2023-02-13T06:31:47;20.77;;;10.70;;
9188;SDS011;34313;50.780;6.084;2023-02-13T06:34:12;19.50;;;10.23;;
9188;SDS011;34313;50.780;6.084;2023-02-13T06:36:38;20.47;;;10.67;;
9188;SDS011;34313;50.780;6.084;2023-02-13T06:39:05;16.40;;;9.30;;
9188;SDS011;34313;50.780;6.084;2023-02-13T06:41:31;15.60;;;9.43;;
9188;SDS011;34313;50.780;6.084;2023-02-13T06:43:56;17.37;;;9.60;;
9188;SDS011;34313;50.780;6.084;2023-02-13T06:46:21;22.13;;;9.47;;
9188;SDS011;34313;50.780;6.084;2023-02-13T06:48:47;16.70;;;9.20;;
9188;SDS011;34313;50.780;6.084;2023-02-13T06:51:12;19.10;;;10.93;;
9188;SDS011;34313;50.780;6.084;2023-02-13T06:53:37;17.90;;;10.40;;
9188;SDS011;34313;50.780;6.084;2023-02-13T06:56:03;15.37;;;9.17;;
9188;SDS011;34313;50.780;6.084;2023-02-13T06:58:32;22.07;;;10.40;;
9188;SDS011;34313;50.780;6.084;2023-02-13T07:00:58;24.77;;;10.60;;
9188;SDS011;34313;50.780;6.084;2023-02-13T07:03:23;18.63;;;9.50;;
9188;SDS011;34313;50.780;6.084;2023-02-13T07:05:49;18.70;;;10.70;;
9188;SDS011;34313;50.780;6.084;2023-02-13T07:08:16;18.20;;;10.07;;
9188;SDS011;34313;50.780;6.084;2023-02-13T07:10:42;18.93;;;10.20;;
9188;SDS011;34313;50.780;6.084;2023-02-13T07:13:07;19.30;;;10.50;;
9188;SDS011;34313;50.780;6.084;2023-02-13T07:15:34;20.47;;;10.87;;
9188;SDS011;34313;50.780;6.084;2023-02-13T07:18:00;19.87;;;10.70;;
9188;SDS011;34313;50.780;6.084;2023-02-13T07:20:26;21.27;;;11.43;;
9188;SDS011;34313;50.780;6.084;2023-02-13T07:22:52;15.93;;;9.50;;
9188;SDS011;34313;50.780;6.084;2023-02-13T07:25:22;18.97;;;11.00;;
9188;SDS011;34313;50.780;6.084;2023-02-13T07:27:47;22.33;;;10.60;;
9188;SDS011;34313;50.780;6.084;2023-02-13T07:30:13;14.60;;;8.10;;
9188;SDS011;34313;50.780;6.084;2023-02-13T07:32:41;15.03;;;8.30;;
9188;SDS011;34313;50.780;6.084;2023-02-13T07:35:07;11.63;;;7.47;;
9188;SDS011;34313;50.780;6.084;2023-02-13T07:37:32;14.03;;;7.43;;
9188;SDS011;34313;50.780;6.084;2023-02-13T07:39:57;12.83;;;7.83;;
9188;SDS011;34313;50.780;6.084;2023-02-13T07:42:23;10.80;;;6.93;;
9188;SDS011;34313;50.780;6.084;2023-02-13T07:44:48;9.40;;;6.20;;
9188;SDS011;34313;50.780;6.084;2023-02-13T07:47:14;8.93;;;5.70;;
9188;SDS011;34313;50.780;6.084;2023-02-13T07:49:39;11.73;;;5.97;;
9188;SDS011;34313;50.780;6.084;2023-02-13T07:52:04;16.50;;;7.50;;
9188;SDS011;34313;50.780;6.084;2023-02-13T07:54:30;10.43;;;7.20;;
9188;SDS011;34313;50.780;6.084;2023-02-13T07:56:56;10.03;;;6.23;;
9188;SDS011;34313;50.780;6.084;2023-02-13T07:59:22;9.37;;;6.10;;
9188;SDS011;34313;50.780;6.084;2023-02-13T08:01:47;9.73;;;5.47;;
9188;SDS011;34313;50.780;6.084;2023-02-13T08:04:13;7.97;;;4.90;;
9188;SDS011;34313;50.780;6.084;2023-02-13T08:06:39;6.13;;;4.50;;
9188;SDS011;34313;50.780;6.084;2023-02-13T08:09:04;6.10;;;4.07;;
9188;SDS011;34313;50.780;6.084;2023-02-13T08:11:48;6.93;;;4.73;;
9188;SDS011;34313;50.780;6.084;2023-02-13T08:14:25;9.23;;;5.30;;
9188;SDS011;34313;50.780;6.084;2023-02-13T08:16:51;8.67;;;6.30;;
9188;SDS011;34313;50.780;6.084;2023-02-13T08:19:18;7.87;;;5.83;;
9188;SDS011;34313;50.780;6.084;2023-02-13T08:21:43;10.07;;;5.87;;
9188;SDS011;34313;50.780;6.084;2023-02-13T08:24:09;13.43;;;7.40;;
9188;SDS011;34313;50.780;6.084;2023-02-13T08:26:35;11.83;;;7.67;;
9188;SDS011;34313;50.780;6.084;2023-02-13T08:29:01;13.00;;;8.83;;
9188;SDS011;34313;50.780;6.084;2023-02-13T08:31:27;11.30;;;7.77;;
9188;SDS011;34313;50.780;6.084;2023-02-13T08:33:52;10.67;;;7.40;;
9188;SDS011;34313;50.780;6.084;2023-02-13T08:36:18;18.23;;;8.00;;
9188;SDS011;34313;50.780;6.084;2023-02-13T08:38:46;10.90;;;7.60;;
9188;SDS011;34313;50.780;6.084;2023-02-13T08:41:12;10.47;;;7.37;;
9188;SDS011;34313;50.780;6.084;2023-02-13T08:43:38;12.90;;;8.23;;
9188;SDS011;34313;50.780;6.084;2023-02-13T08:46:04;16.40;;;7.83;;
9188;SDS011;34313;50.780;6.084;2023-02-13T08:48:29;12.07;;;7.80;;
9188;SDS011;34313;50.780;6.084;2023-02-13T08:50:54;15.00;;;7.67;;
9188;SDS011;34313;50.780;6.084;2023-02-13T08:53:20;14.10;;;7.60;;
9188;SDS011;34313;50.780;6.084;2023-02-13T08:55:55;12.43;;;7.70;;
9188;SDS011;34313;50.780;6.084;2023-02-13T08:58:21;10.10;;;6.37;;
9188;SDS011;34313;50.780;6.084;2023-02-13T09:00:47;13.20;;;7.47;;
9188;SDS011;34313;50.780;6.084;2023-02-13T09:03:13;10.30;;;7.30;;
9188;SDS011;34313;50.780;6.084;2023-02-13T09:05:39;9.47;;;6.93;;
9188;SDS011;34313;50.780;6.084;2023-02-13T09:08:05;9.13;;;6.20;;
9188;SDS011;34313;50.780;6.084;2023-02-13T09:10:32;9.73;;;7.00;;
9188;SDS011;34313;50.780;6.084;2023-02-13T09:12:58;10.87;;;6.90;;
9188;SDS011;34313;50.780;6.084;2023-02-13T09:15:25;24.73;;;8.20;;
9188;SDS011;34313;50.780;6.084;2023-02-13T09:17:50;14.73;;;7.07;;
9188;SDS011;34313;50.780;6.084;2023-02-13T09:20:16;10.93;;;7.20;;
9188;SDS011;34313;50.780;6.084;2023-02-13T09:22:41;11.40;;;7.90;;
9188;SDS011;34313;50.780;6.084;2023-02-13T09:25:08;12.43;;;8.27;;
9188;SDS011;34313;50.780;6.084;2023-02-13T09:27:34;19.30;;;8.07;;
9188;SDS011;34313;50.780;6.084;2023-02-13T09:30:00;10.60;;;7.00;;
9188;SDS011;34313;50.780;6.084;2023-02-13T09:32:25;10.20;;;7.53;;
9188;SDS011;34313;50.780;6.084;2023-02-13T09:34:51;13.17;;;7.37;;
9188;SDS011;34313;50.780;6.084;2023-02-13T09:37:17;11.17;;;7.70;;
9188;SDS011;34313;50.780;6.084;2023-02-13T09:39:46;10.33;;;6.80;;
9188;SDS011;34313;50.780;6.084;2023-02-13T09:42:19;11.00;;;7.57;;
9188;SDS011;34313;50.780;6.084;2023-02-13T09:44:51;11.77;;;7.07;;
9188;SDS011;34313;50.780;6.084;2023-02-13T09:50:07;12.37;;;6.97;;
9188;SDS011;34313;50.780;6.084;2023-02-13T09:52:46;10.03;;;6.87;;
9188;SDS011;34313;50.780;6.084;2023-02-13T09:55:15;9.67;;;7.53;;
9188;SDS011;34313;50.780;6.084;2023-02-13T10:00:44;11.53;;;7.00;;
9188;SDS011;34313;50.780;6.084;2023-02-13T10:03:27;10.50;;;6.93;;
9188;SDS011;34313;50.780;6.084;2023-02-13T10:06:29;11.27;;;7.20;;
9188;SDS011;34313;50.780;6.084;2023-02-13T10:09:05;8.93;;;6.40;;
9188;SDS011;34313;50.780;6.084;2023-02-13T10:14:41;8.80;;;6.50;;
9188;SDS011;34313;50.780;6.084;2023-02-13T10:17:31;8.60;;;6.40;;
9188;SDS011;34313;50.780;6.084;2023-02-13T10:20:24;13.03;;;7.27;;
9188;SDS011;34313;50.780;6.084;2023-02-13T10:22:53;9.73;;;6.10;;
9188;SDS011;34313;50.780;6.084;2023-02-13T10:25:24;12.77;;;6.57;;
9188;SDS011;34313;50.780;6.084;2023-02-13T10:28:04;8.60;;;6.17;;
9188;SDS011;34313;50.780;6.084;2023-02-13T10:30:48;9.70;;;6.80;;
9188;SDS011;34313;50.780;6.084;2023-02-13T10:36:00;10.27;;;6.83;;
9188;SDS011;34313;50.780;6.084;2023-02-13T10:38:30;14.93;;;7.50;;
9188;SDS011;34313;50.780;6.084;2023-02-13T10:41:05;10.20;;;7.40;;
9188;SDS011;34313;50.780;6.084;2023-02-13T10:49:24;10.67;;;7.10;;
9188;SDS011;34313;50.780;6.084;2023-02-13T10:52:24;13.03;;;6.63;;
9188;SDS011;34313;50.780;6.084;2023-02-13T10:55:14;8.77;;;6.13;;
9188;SDS011;34313;50.780;6.084;2023-02-13T11:03:14;9.13;;;6.50;;
9188;SDS011;34313;50.780;6.084;2023-02-13T11:05:49;10.17;;;6.27;;
9188;SDS011;34313;50.780;6.084;2023-02-13T11:08:20;8.47;;;5.90;;
9188;SDS011;34313;50.780;6.084;2023-02-13T11:10:48;10.63;;;6.00;;
9188;SDS011;34313;50.780;6.084;2023-02-13T11:13:24;7.60;;;5.00;;
9188;SDS011;34313;50.780;6.084;2023-02-13T11:18:26;11.67;;;6.43;;
9188;SDS011;34313;50.780;6.084;2023-02-13T11:21:02;10.37;;;5.67;;
9188;SDS011;34313;50.780;6.084;2023-02-13T11:23:44;7.90;;;5.27;;
9188;SDS011;34313;50.780;6.084;2023-02-13T11:26:15;8.33;;;6.00;;
9188;SDS011;34313;50.780;6.084;2023-02-13T11:28:54;9.57;;;5.63;;
9188;SDS011;34313;50.780;6.084;2023-02-13T11:31:31;7.87;;;5.63;;
9188;SDS011;34313;50.780;6.084;2023-02-13T11:36:45;8.33;;;6.03;;
9188;SDS011;34313;50.780;6.084;2023-02-13T11:39:20;10.30;;;6.47;;
9188;SDS011;34313;50.780;6.084;2023-02-13T11:41:46;9.00;;;6.00;;
9188;SDS011;34313;50.780;6.084;2023-02-13T11:46:53;9.13;;;6.50;;
9188;SDS011;34313;50.780;6.084;2023-02-13T11:49:24;11.43;;;6.80;;
9188;SDS011;34313;50.780;6.084;2023-02-13T11:51:59;11.30;;;7.70;;
9188;SDS011;34313;50.780;6.084;2023-02-13T11:54:28;11.60;;;7.10;;
9188;SDS011;34313;50.780;6.084;2023-02-13T11:57:21;10.63;;;6.90;;
9188;SDS011;34313;50.780;6.084;2023-02-13T11:59:48;10.57;;;7.10;;
9188;SDS011;34313;50.780;6.084;2023-02-13T12:02:20;10.27;;;6.90;;
9188;SDS011;34313;50.780;6.084;2023-02-13T12:04:49;12.13;;;7.80;;
9188;SDS011;34313;50.780;6.084;2023-02-13T12:07:18;12.37;;;7.27;;
9188;SDS011;34313;50.780;6.084;2023-02-13T12:10:31;12.43;;;8.00;;
9188;SDS011;34313;50.780;6.084;2023-02-13T12:12:55;12.30;;;8.47;;
9188;SDS011;34313;50.780;6.084;2023-02-13T12:15:26;16.30;;;9.00;;
9188;SDS011;34313;50.780;6.084;2023-02-13T12:18:13;11.87;;;8.20;;
9188;SDS011;34313;50.780;6.084;2023-02-13T12:23:38;11.00;;;7.30;;
9188;SDS011;34313;50.780;6.084;2023-02-13T12:28:45;10.30;;;7.23;;
9188;SDS011;34313;50.780;6.084;2023-02-13T12:48:15;8.60;;;6.30;;
9188;SDS011;34313;50.780;6.084;2023-02-13T12:51:12;9.52;;;6.57;;
9188;SDS011;34313;50.780;6.084;2023-02-13T12:57:05;10.57;;;6.83;;
9188;SDS011;34313;50.780;6.084;2023-02-13T13:08:15;10.40;;;7.10;;
9188;SDS011;34313;50.780;6.084;2023-02-13T13:19:18;12.57;;;6.07;;
9188;SDS011;34313;50.780;6.084;2023-02-13T13:22:06;8.43;;;5.50;;
9188;SDS011;34313;50.780;6.084;2023-02-13T13:25:03;10.23;;;5.43;;
9188;SDS011;34313;50.780;6.084;2023-02-13T13:27:50;11.13;;;5.10;;
9188;SDS011;34313;50.780;6.084;2023-02-13T13:30:21;5.43;;;3.97;;
9188;SDS011;34313;50.780;6.084;2023-02-13T13:32:51;7.80;;;4.90;;
9188;SDS011;34313;50.780;6.084;2023-02-13T13:35:21;8.93;;;5.20;;
9188;SDS011;34313;50.780;6.084;2023-02-13T13:38:11;14.23;;;5.33;;
9188;SDS011;34313;50.780;6.084;2023-02-13T13:40:44;7.13;;;5.47;;
9188;SDS011;34313;50.780;6.084;2023-02-13T13:51:19;7.87;;;4.40;;
9188;SDS011;34313;50.780;6.084;2023-02-13T13:56:23;8.67;;;5.77;;
9188;SDS011;34313;50.780;6.084;2023-02-13T13:58:49;7.40;;;5.00;;
9188;SDS011;34313;50.780;6.084;2023-02-13T14:09:04;7.67;;;4.70;;
9188;SDS011;34313;50.780;6.084;2023-02-13T14:13:58;12.40;;;6.70;;
9188;SDS011;34313;50.780;6.084;2023-02-13T14:16:41;12.17;;;5.30;;
9188;SDS011;34313;50.780;6.084;2023-02-13T14:24:48;7.77;;;5.90;;
9188;SDS011;34313;50.780;6.084;2023-02-13T14:27:20;8.20;;;5.30;;
9188;SDS011;34313;50.780;6.084;2023-02-13T14:29:47;9.63;;;5.67;;
9188;SDS011;34313;50.780;6.084;2023-02-13T14:32:15;8.57;;;5.97;;
9188;SDS011;34313;50.780;6.084;2023-02-13T14:34:54;7.37;;;5.57;;
9188;SDS011;34313;50.780;6.084;2023-02-13T14:37:26;6.10;;;4.30;;
9188;SDS011;34313;50.780;6.084;2023-02-13T14:48:59;10.67;;;6.23;;
9188;SDS011;34313;50.780;6.084;2023-02-13T14:51:33;10.17;;;7.40;;
9188;SDS011;34313;50.780;6.084;2023-02-13T14:54:16;11.70;;;7.40;;
9188;SDS011;34313;50.780;6.084;2023-02-13T14:56:52;13.40;;;8.23;;
9188;SDS011;34313;50.780;6.084;2023-02-13T14:59:25;9.40;;;7.03;;
9188;SDS011;34313;50.780;6.084;2023-02-13T15:01:59;10.50;;;7.90;;
9188;SDS011;34313;50.780;6.084;2023-02-13T15:04:39;11.93;;;7.43;;
9188;SDS011;34313;50.780;6.084;2023-02-13T15:07:12;12.40;;;8.30;;
9188;SDS011;34313;50.780;6.084;2023-02-13T15:09:56;13.27;;;8.50;;
9188;SDS011;34313;50.780;6.084;2023-02-13T15:12:27;16.30;;;9.00;;
9188;SDS011;34313;50.780;6.084;2023-02-13T15:14:56;25.83;;;9.20;;
9188;SDS011;34313;50.780;6.084;2023-02-13T15:17:29;14.80;;;9.30;;
9188;SDS011;34313;50.780;6.084;2023-02-13T15:22:37;13.50;;;10.10;;
9188;SDS011;34313;50.780;6.084;2023-02-13T15:25:06;19.97;;;10.30;;
9188;SDS011;34313;50.780;6.084;2023-02-13T15:27:37;14.77;;;9.93;;
9188;SDS011;34313;50.780;6.084;2023-02-13T15:32:59;13.20;;;9.37;;
9188;SDS011;34313;50.780;6.084;2023-02-13T15:35:45;15.23;;;10.20;;
9188;SDS011;34313;50.780;6.084;2023-02-13T15:40:50;14.27;;;9.17;;
9188;SDS011;34313;50.780;6.084;2023-02-13T15:43:24;14.87;;;10.00;;
9188;SDS011;34313;50.780;6.084;2023-02-13T15:45:58;15.27;;;10.43;;
9188;SDS011;34313;50.780;6.084;2023-02-13T15:48:26;17.37;;;10.00;;
9188;SDS011;34313;50.780;6.084;2023-02-13T15:50:53;14.57;;;9.50;;
9188;SDS011;34313;50.780;6.084;2023-02-13T15:53:19;13.53;;;9.17;;
9188;SDS011;34313;50.780;6.084;2023-02-13T15:56:11;14.20;;;9.70;;
9188;SDS011;34313;50.780;6.084;2023-02-13T15:58:38;15.07;;;10.07;;
9188;SDS011;34313;50.780;6.084;2023-02-13T16:01:06;17.40;;;8.50;;
9188;SDS011;34313;50.780;6.084;2023-02-13T16:03:33;14.00;;;8.70;;
9188;SDS011;34313;50.780;6.084;2023-02-13T16:06:03;14.70;;;9.13;;
9188;SDS011;34313;50.780;6.084;2023-02-13T16:08:31;13.40;;;8.88;;
9188;SDS011;34313;50.780;6.084;2023-02-13T16:17:04;14.83;;;8.30;;
9188;SDS011;34313;50.780;6.084;2023-02-13T16:25:39;15.60;;;8.47;;
9188;SDS011;34313;50.780;6.084;2023-02-13T16:35:41;15.10;;;8.90;;
9188;SDS011;34313;50.780;6.084;2023-02-13T16:46:30;15.80;;;8.97;;
9188;SDS011;34313;50.780;6.084;2023-02-13T16:51:29;17.27;;;9.27;;
9188;SDS011;34313;50.780;6.084;2023-02-13T16:53:59;15.00;;;9.20;;
9188;SDS011;34313;50.780;6.084;2023-02-13T16:56:28;19.87;;;9.03;;
9188;SDS011;34313;50.780;6.084;2023-02-13T17:02:01;17.73;;;9.63;;
9188;SDS011;34313;50.780;6.084;2023-02-13T17:04:27;16.03;;;10.23;;
9188;SDS011;34313;50.780;6.084;2023-02-13T17:06:53;16.57;;;8.80;;
9188;SDS011;34313;50.780;6.084;2023-02-13T17:09:19;16.37;;;8.70;;
9188;SDS011;34313;50.780;6.084;2023-02-13T17:11:45;13.33;;;8.63;;
9188;SDS011;34313;50.780;6.084;2023-02-13T17:14:14;17.07;;;11.47;;
9188;SDS011;34313;50.780;6.084;2023-02-13T17:16:39;15.70;;;9.77;;
9188;SDS011;34313;50.780;6.084;2023-02-13T17:19:05;15.17;;;9.23;;
9188;SDS011;34313;50.780;6.084;2023-02-13T17:21:31;15.83;;;9.57;;
9188;SDS011;34313;50.780;6.084;2023-02-13T17:23:56;15.67;;;9.07;;
9188;SDS011;34313;50.780;6.084;2023-02-13T17:26:22;13.17;;;8.90;;
9188;SDS011;34313;50.780;6.084;2023-02-13T17:28:47;14.53;;;7.87;;
9188;SDS011;34313;50.780;6.084;2023-02-13T17:31:13;15.33;;;9.10;;
9188;SDS011;34313;50.780;6.084;2023-02-13T17:33:38;15.90;;;9.47;;
9188;SDS011;34313;50.780;6.084;2023-02-13T17:36:05;16.37;;;9.40;;
9188;SDS011;34313;50.780;6.084;2023-02-13T17:38:31;14.23;;;8.23;;
9188;SDS011;34313;50.780;6.084;2023-02-13T17:40:56;18.73;;;9.50;;
9188;SDS011;34313;50.780;6.084;2023-02-13T17:43:21;14.60;;;9.03;;
9188;SDS011;34313;50.780;6.084;2023-02-13T17:45:49;16.00;;;10.90;;
9188;SDS011;34313;50.780;6.084;2023-02-13T17:48:14;24.70;;;13.10;;
9188;SDS011;34313;50.780;6.084;2023-02-13T17:50:40;18.70;;;9.90;;
9188;SDS011;34313;50.780;6.084;2023-02-13T17:53:07;15.10;;;9.17;;
9188;SDS011;34313;50.780;6.084;2023-02-13T17:55:42;13.40;;;8.63;;
9188;SDS011;34313;50.780;6.084;2023-02-13T17:58:08;13.17;;;8.60;;
9188;SDS011;34313;50.780;6.084;2023-02-13T18:00:33;14.10;;;9.30;;
9188;SDS011;34313;50.780;6.084;2023-02-13T18:02:59;15.73;;;9.33;;
9188;SDS011;34313;50.780;6.084;2023-02-13T18:05:25;17.37;;;9.10;;
9188;SDS011;34313;50.780;6.084;2023-02-13T18:07:52;23.73;;;12.87;;
9188;SDS011;34313;50.780;6.084;2023-02-13T18:10:18;21.73;;;11.63;;
9188;SDS011;34313;50.780;6.084;2023-02-13T18:12:46;19.43;;;11.17;;
9188;SDS011;34313;50.780;6.084;2023-02-13T18:15:13;20.65;;;10.80;;
9188;SDS011;34313;50.780;6.084;2023-02-13T18:17:39;21.70;;;10.67;;